sensor_id;sensor_type;location;lat;lon;timestamp;pressure;altitude;pressure_sealevel;temperature;humidity
85458;BME280;75848;42.706;23.292;2024-02-15T20:46:55;95661.69;;;5.72;55.03
85458;BME280;75848;42.706;23.292;2024-02-15T20:49:23;95660.78;;;5.57;55.35
85458;BME280;75848;42.706;23.292;2024-02-15T20:51:51;95658.97;;;5.21;56.76
85458;BME280;75848;42.706;23.292;2024-02-15T20:54:17;95654.66;;;5.10;57.50
85458;BME280;75848;42.706;23.292;2024-02-15T20:56:42;95662.06;;;4.83;58.18
85458;BME280;75848;42.706;23.292;2024-02-15T20:59:11;95656.94;;;4.68;58.57
85458;BME280;75848;42.706;23.292;2024-02-15T21:01:39;95662.56;;;4.59;59.21
85458;BME280;75848;42.706;23.292;2024-02-15T21:04:04;95660.59;;;4.53;59.08
85458;BME280;75848;42.706;23.292;2024-02-15T21:06:31;95657.72;;;4.35;59.26
85458;BME280;75848;42.706;23.292;2024-02-15T21:09:02;95653.50;;;4.37;59.68
85458;BME280;75848;42.706;23.292;2024-02-15T21:11:33;95658.03;;;4.30;60.15
85458;BME280;75848;42.706;23.292;2024-02-15T21:13:59;95653.81;;;4.29;60.08
85458;BME280;75848;42.706;23.292;2024-02-15T21:16:28;95652.28;;;4.31;59.82
85458;BME280;75848;42.706;23.292;2024-02-15T21:18:57;95650.66;;;4.23;60.13
85458;BME280;75848;42.706;23.292;2024-02-15T21:21:24;95657.28;;;4.29;60.09
85458;BME280;75848;42.706;23.292;2024-02-15T21:23:49;95647.50;;;4.14;59.96
85458;BME280;75848;42.706;23.292;2024-02-15T21:26:17;95661.66;;;4.15;60.00
85458;BME280;75848;42.706;23.292;2024-02-15T21:28:46;95663.88;;;4.06;60.83
85458;BME280;75848;42.706;23.292;2024-02-15T21:31:15;95661.56;;;4.04;60.82
85458;BME280;75848;42.706;23.292;2024-02-15T21:33:42;95660.47;;;4.09;60.29
85458;BME280;75848;42.706;23.292;2024-02-15T21:36:07;95663.75;;;3.99;60.68
85458;BME280;75848;42.706;23.292;2024-02-15T21:38:33;95666.34;;;3.88;61.43
85458;BME280;75848;42.706;23.292;2024-02-15T21:40:59;95658.56;;;3.83;61.74
85458;BME280;75848;42.706;23.292;2024-02-15T21:43:24;95666.34;;;3.92;60.97
85458;BME280;75848;42.706;23.292;2024-02-15T21:45:51;95662.50;;;3.89;61.48
85458;BME280;75848;42.706;23.292;2024-02-15T21:48:21;95669.31;;;3.83;61.31
85458;BME280;75848;42.706;23.292;2024-02-15T21:50:47;95661.06;;;3.69;61.73
85458;BME280;75848;42.706;23.292;2024-02-15T21:53:12;95666.38;;;3.66;62.83
85458;BME280;75848;42.706;23.292;2024-02-15T21:55:38;95670.34;;;3.75;62.23
85458;BME280;75848;42.706;23.292;2024-02-15T21:58:03;95670.72;;;3.74;62.58
85458;BME280;75848;42.706;23.292;2024-02-15T22:00:30;95669.59;;;3.75;62.38
85458;BME280;75848;42.706;23.292;2024-02-15T22:02:56;95665.34;;;3.74;62.46
85458;BME280;75848;42.706;23.292;2024-02-15T22:05:22;95673.25;;;3.63;62.63
85458;BME280;75848;42.706;23.292;2024-02-15T22:07:47;95660.47;;;3.53;62.99
85458;BME280;75848;42.706;23.292;2024-02-15T22:10:15;95662.63;;;3.44;63.22
85458;BME280;75848;42.706;23.292;2024-02-15T22:12:41;95667.66;;;3.49;62.70
85458;BME280;75848;42.706;23.292;2024-02-15T22:15:08;95666.31;;;3.36;62.61
85458;BME280;75848;42.706;23.292;2024-02-15T22:17:35;95671.84;;;3.47;63.10
85458;BME280;75848;42.706;23.292;2024-02-15T22:20:01;95668.38;;;3.46;62.76
85458;BME280;75848;42.706;23.292;2024-02-15T22:22:28;95664.09;;;3.42;62.32
85458;BME280;75848;42.706;23.292;2024-02-15T22:24:53;95674.09;;;3.45;62.82
85458;BME280;75848;42.706;23.292;2024-02-15T22:27:20;95667.19;;;3.44;62.16
85458;BME280;75848;42.706;23.292;2024-02-15T22:29:46;95674.47;;;3.43;61.88
85458;BME280;75848;42.706;23.292;2024-02-15T22:32:11;95654.66;;;3.25;62.72
85458;BME280;75848;42.706;23.292;2024-02-15T22:34:37;95665.59;;;3.39;62.46
85458;BME280;75848;42.706;23.292;2024-02-15T22:37:03;95659.34;;;3.32;62.62
85458;BME280;75848;42.706;23.292;2024-02-15T22:39:29;95656.38;;;3.37;62.96
85458;BME280;75848;42.706;23.292;2024-02-15T22:41:55;95660.22;;;3.39;62.43
85458;BME280;75848;42.706;23.292;2024-02-15T22:44:20;95665.41;;;3.29;63.21
85458;BME280;75848;42.706;23.292;2024-02-15T22:46:47;95660.31;;;3.20;62.87
85458;BME280;75848;42.706;23.292;2024-02-15T22:49:15;95660.38;;;3.24;62.81
85458;BME280;75848;42.706;23.292;2024-02-15T22:51:43;95658.09;;;3.26;62.41
85458;BME280;75848;42.706;23.292;2024-02-15T22:54:09;95667.28;;;3.25;62.33
85458;BME280;75848;42.706;23.292;2024-02-15T22:56:34;95666.03;;;3.19;62.64
85458;BME280;75848;42.706;23.292;2024-02-15T22:59:00;95661.75;;;3.14;62.66
85458;BME280;75848;42.706;23.292;2024-02-15T23:01:26;95661.28;;;3.09;63.49
85458;BME280;75848;42.706;23.292;2024-02-15T23:03:51;95666.53;;;3.02;63.02
85458;BME280;75848;42.706;23.292;2024-02-15T23:06:17;95669.25;;;3.05;63.54
85458;BME280;75848;42.706;23.292;2024-02-15T23:08:42;95663.78;;;2.98;63.25
85458;BME280;75848;42.706;23.292;2024-02-15T23:11:08;95674.44;;;2.95;64.46
85458;BME280;75848;42.706;23.292;2024-02-15T23:13:35;95667.50;;;2.94;63.98
85458;BME280;75848;42.706;23.292;2024-02-15T23:16:04;95670.88;;;2.87;63.88
85458;BME280;75848;42.706;23.292;2024-02-15T23:18:32;95670.91;;;2.91;63.89
85458;BME280;75848;42.706;23.292;2024-02-15T23:20:58;95664.84;;;2.94;63.83
85458;BME280;75848;42.706;23.292;2024-02-15T23:23:23;95663.19;;;2.86;63.39
85458;BME280;75848;42.706;23.292;2024-02-15T23:25:53;95663.09;;;2.82;64.31
85458;BME280;75848;42.706;23.292;2024-02-15T23:28:18;95663.03;;;2.79;63.74
85458;BME280;75848;42.706;23.292;2024-02-15T23:30:44;95653.69;;;2.69;64.52
85458;BME280;75848;42.706;23.292;2024-02-15T23:33:12;95654.75;;;2.65;64.26
85458;BME280;75848;42.706;23.292;2024-02-15T23:35:46;95657.78;;;2.63;64.68
85458;BME280;75848;42.706;23.292;2024-02-15T23:38:30;95657.66;;;2.56;65.43
85458;BME280;75848;42.706;23.292;2024-02-15T23:41:14;95654.97;;;2.56;65.11
85458;BME280;75848;42.706;23.292;2024-02-15T23:43:42;95660.75;;;2.58;65.38
85458;BME280;75848;42.706;23.292;2024-02-15T23:46:08;95651.41;;;2.49;65.00
85458;BME280;75848;42.706;23.292;2024-02-15T23:48:34;95653.78;;;2.54;65.12
85458;BME280;75848;42.706;23.292;2024-02-15T23:51:01;95661.75;;;2.50;65.33
85458;BME280;75848;42.706;23.292;2024-02-15T23:53:27;95657.38;;;2.42;65.71
85458;BME280;75848;42.706;23.292;2024-02-15T23:55:52;95661.31;;;2.48;65.27
85458;BME280;75848;42.706;23.292;2024-02-15T23:58:18;95665.28;;;2.54;65.73
